createdAt,value
2016-05-17T00:02:48.193Z,1009.16
2016-05-17T00:06:00.513Z,1009.22
2016-05-17T00:09:11.602Z,1009.08
2016-05-17T00:12:28.095Z,1009.16
2016-05-17T00:15:31.727Z,1009.3
2016-05-17T00:18:44.188Z,1009.16
2016-05-17T00:21:56.760Z,1009.16
2016-05-17T00:25:09.004Z,1009.1
2016-05-17T00:28:25.435Z,1009.12
2016-05-17T00:31:32.895Z,1009.04
2016-05-17T00:34:36.450Z,1009.04
2016-05-17T00:37:49.147Z,1009.02
2016-05-17T00:41:01.530Z,1009.06
2016-05-17T00:44:13.994Z,1009.06
2016-05-17T00:47:31.236Z,1009
2016-05-17T00:50:33.743Z,1009.1
2016-05-17T00:53:46.237Z,1009.08
2016-05-17T00:56:58.291Z,1009.08
2016-05-17T01:00:10.787Z,1008.96
2016-05-17T01:03:26.795Z,1009
2016-05-17T01:06:30.536Z,1008.98
2016-05-17T01:09:42.795Z,1008.98
2016-05-17T01:12:55.475Z,1009.04
2016-05-17T01:16:08.189Z,1009.04
2016-05-17T01:19:24.463Z,1008.96
2016-05-17T01:22:32.174Z,1008.96
2016-05-17T01:25:35.885Z,1009.08
2016-05-17T01:28:48.206Z,1008.98
2016-05-17T01:32:00.464Z,1008.94
2016-05-17T01:35:12.787Z,1008.84
2016-05-17T01:38:28.967Z,1008.8
2016-05-17T01:41:32.616Z,1008.84
2016-05-17T01:44:44.983Z,1008.84
2016-05-17T01:47:57.553Z,1008.74
2016-05-17T01:51:09.846Z,1008.86
2016-05-17T01:54:26.807Z,1008.78
2016-05-17T01:57:30.440Z,1008.74
2016-05-17T02:00:42.698Z,1008.68
2016-05-17T02:03:55.081Z,1008.74
2016-05-17T02:07:07.370Z,1008.74
2016-05-17T02:10:19.397Z,1008.76
2016-05-17T02:13:30.170Z,1008.62
2016-05-17T02:16:42.631Z,1008.58
2016-05-17T02:19:54.984Z,1008.62
2016-05-17T02:23:07.491Z,1008.48
2016-05-17T02:26:24.268Z,1008.58
2016-05-17T02:29:31.635Z,1008.54
2016-05-17T02:32:35.456Z,1008.56
2016-05-17T02:35:47.823Z,1008.54
2016-05-17T02:39:00.425Z,1008.52
2016-05-17T02:42:13.030Z,1008.56
2016-05-17T02:45:29.725Z,1008.48
2016-05-17T02:48:33.327Z,1008.54
2016-05-17T02:51:45.930Z,1008.3
2016-05-17T02:54:58.421Z,1008.48
2016-05-17T02:58:10.838Z,1008.48
2016-05-17T03:01:26.659Z,1008.48
2016-05-17T03:04:30.260Z,1008.48
2016-05-17T03:07:42.878Z,1008.44
2016-05-17T03:10:55.276Z,1008.48
2016-05-17T03:14:07.722Z,1008.48
2016-05-17T03:17:24.342Z,1008.43
2016-05-17T03:20:31.788Z,1008.38
2016-05-17T03:23:35.343Z,1008.3
2016-05-17T03:26:47.741Z,1008.2
2016-05-17T03:30:00.218Z,1008.32
2016-05-17T03:33:12.589Z,1008.34
2016-05-17T03:36:29.128Z,1008.43
2016-05-17T03:39:31.574Z,1008.44
2016-05-17T03:42:44.675Z,1008.38
2016-05-17T03:45:57.136Z,1008.3
2016-05-17T03:49:09.629Z,1008.44
2016-05-17T03:52:26.124Z,1008.38
2016-05-17T03:55:33.772Z,1008.32
2016-05-17T03:58:37.218Z,1008.34
2016-05-17T04:01:49.601Z,1008.44
2016-05-17T04:05:02.110Z,1008.43
2016-05-17T04:08:14.714Z,1008.36
2016-05-17T04:11:31.112Z,1008.36
2016-05-17T04:14:34.667Z,1008.28
2016-05-17T04:17:47.285Z,1008.44
2016-05-17T04:20:59.684Z,1008.32
2016-05-17T04:24:12.255Z,1008.46
2016-05-17T04:27:29.030Z,1008.44
2016-05-17T04:30:32.695Z,1008.43
2016-05-17T04:33:42.406Z,1008.44
2016-05-17T04:36:54.743Z,1008.36
2016-05-17T04:40:06.860Z,1008.38
2016-05-17T04:43:19.370Z,1008.36
2016-05-17T04:46:31.504Z,1008.34
2016-05-17T04:49:41.933Z,1008.28
2016-05-17T04:52:54.239Z,1008.3
2016-05-17T04:56:06.544Z,1008.24
2016-05-17T04:59:18.960Z,1008.36
2016-05-17T05:02:31.172Z,1008.48
2016-05-17T05:05:43.460Z,1008.34
2016-05-17T05:08:55.765Z,1008.36
2016-05-17T05:12:08.303Z,1008.38
2016-05-17T05:15:24.929Z,1008.46
2016-05-17T05:18:32.609Z,1008.48
2016-05-17T05:21:36.231Z,1008.36
2016-05-17T05:24:48.769Z,1008.34
2016-05-17T05:27:59.986Z,1008.18
2016-05-17T05:31:13.576Z,1008.28
2016-05-17T05:34:29.949Z,1008.32
2016-05-17T05:37:33.490Z,1008.43
2016-05-17T05:40:45.904Z,1008.48
2016-05-17T05:43:57.429Z,1008.48
2016-05-17T05:47:09.874Z,1008.56
2016-05-17T05:50:26.244Z,1008.5
2016-05-17T05:53:33.768Z,1008.5
2016-05-17T05:56:37.401Z,1008.52
2016-05-17T05:59:49.862Z,1008.5
2016-05-17T06:03:02.511Z,1008.6
2016-05-17T06:06:14.597Z,1008.52
2016-05-17T06:09:30.921Z,1008.66
2016-05-17T06:12:34.678Z,1008.56
2016-05-17T06:15:44.218Z,1008.54
2016-05-17T06:18:56.710Z,1008.48
2016-05-17T06:22:09.609Z,1008.46
2016-05-17T06:25:25.792Z,1008.56
2016-05-17T06:28:33.455Z,1008.64
2016-05-17T06:31:37.058Z,1008.62
2016-05-17T06:34:49.378Z,1008.58
2016-05-17T06:38:01.871Z,1008.54
2016-05-17T06:41:14.566Z,1008.58
2016-05-17T06:44:31.265Z,1008.58
2016-05-17T06:47:34.913Z,1008.64
2016-05-17T06:50:47.343Z,1008.6
2016-05-17T06:53:59.757Z,1008.66
2016-05-17T06:57:12.062Z,1008.66
2016-05-17T07:00:28.636Z,1008.72
2016-05-17T07:03:32.253Z,1008.5
2016-05-17T07:06:44.761Z,1008.56
2016-05-17T07:09:57.394Z,1008.6
2016-05-17T07:13:10.183Z,1008.68
2016-05-17T07:16:27.804Z,1008.72
2016-05-17T07:19:34.562Z,1008.6
2016-05-17T07:22:38.335Z,1008.6
2016-05-17T07:25:51.109Z,1008.58
2016-05-17T07:29:03.648Z,1008.58
2016-05-17T07:32:16.375Z,1008.54
2016-05-17T07:35:33.136Z,1008.58
2016-05-17T07:38:37.003Z,1008.52
2016-05-17T07:41:49.699Z,1008.46
2016-05-17T07:45:02.426Z,1008.46
2016-05-17T07:48:14.997Z,1008.24
2016-05-17T07:51:31.710Z,1008.43
2016-05-17T07:54:35.531Z,1008.38
2016-05-17T07:57:48.195Z,1008.43
2016-05-17T08:01:00.797Z,1008.43
2016-05-17T08:04:13.273Z,1008.44
2016-05-17T08:07:29.534Z,1008.48
2016-05-17T08:10:32.089Z,1008.43
2016-05-17T08:13:44.816Z,1008.54
2016-05-17T08:16:58.449Z,1008.5
2016-05-17T08:20:10.879Z,1008.58
2016-05-17T08:23:27.202Z,1008.62
2016-05-17T08:26:34.695Z,1008.78
2016-05-17T08:29:38.172Z,1008.64
2016-05-17T08:32:50.680Z,1008.56
2016-05-17T08:36:02.970Z,1008.38
2016-05-17T08:39:15.306Z,1008.48
2016-05-17T08:42:31.222Z,1008.36
2016-05-17T08:45:34.543Z,1008.38
2016-05-17T08:48:46.941Z,1008.5
2016-05-17T08:51:58.715Z,1008.54
2016-05-17T08:55:10.708Z,1008.56
2016-05-17T08:58:25.375Z,1008.74
2016-05-17T09:01:32.195Z,1008.72
2016-05-17T09:04:35.172Z,1008.66
2016-05-17T09:07:47.539Z,1008.84
2016-05-17T09:10:58.986Z,1008.82
2016-05-17T09:14:10.024Z,1008.84
2016-05-17T09:17:20.142Z,1008.8
2016-05-17T09:20:34.527Z,1008.84
2016-05-17T09:23:37.380Z,1008.8
2016-05-17T09:26:49.216Z,1008.78
2016-05-17T09:30:00.318Z,1008.66
2016-05-17T09:33:11.670Z,1008.66
2016-05-17T09:36:27.540Z,1008.43
2016-05-17T09:39:34.814Z,1008.38
2016-05-17T09:42:38.197Z,1008.5
2016-05-17T09:45:49.844Z,1008.38
2016-05-17T09:49:01.493Z,1008.62
2016-05-17T09:52:12.908Z,1008.62
2016-05-17T09:55:29.060Z,1008.5
2016-05-17T09:58:32.427Z,1008.48
2016-05-17T10:01:44.482Z,1008.32
2016-05-17T10:04:56.709Z,1008.3
2016-05-17T10:08:09.201Z,1008.34
2016-05-17T10:11:18.522Z,1008.36
2016-05-17T10:14:34.626Z,1008.34
2016-05-17T10:17:38.197Z,1008.38
2016-05-17T10:20:50.314Z,1008.32
2016-05-17T10:24:02.979Z,1008.3
2016-05-17T10:27:15.362Z,1008.26
2016-05-17T10:30:31.762Z,1008.28
2016-05-17T10:33:35.162Z,1008.18
2016-05-17T10:36:51.591Z,1008.14
2016-05-17T10:39:54.881Z,1008.26
2016-05-17T10:43:07.233Z,1008.43
2016-05-17T10:46:19.209Z,1008.48
2016-05-17T10:49:31.111Z,1008.56
2016-05-17T10:52:43.010Z,1008.76
2016-05-17T10:55:54.893Z,1008.66
2016-05-17T10:59:06.916Z,1008.6
2016-05-17T11:02:18.987Z,1008.58
2016-05-17T11:05:31.107Z,1008.44
2016-05-17T11:08:43.396Z,1008.36
2016-05-17T11:11:55.701Z,1008.38
2016-05-17T11:15:07.834Z,1008.24
2016-05-17T11:18:19.967Z,1008.28
2016-05-17T11:21:32.009Z,1008.24
2016-05-17T11:24:44.158Z,1008.22
2016-05-17T11:27:56.229Z,1008.46
2016-05-17T11:31:08.455Z,1008.5
2016-05-17T11:34:20.385Z,1008.43
2016-05-17T11:37:32.052Z,1008.43
2016-05-17T11:40:44.248Z,1008.43
2016-05-17T11:43:56.506Z,1008.36
2016-05-17T11:47:08.858Z,1008.26
2016-05-17T11:50:21.038Z,1008.26
2016-05-17T11:53:33.033Z,1008.26
2016-05-17T11:56:44.979Z,1008.22
2016-05-17T11:59:57.066Z,1008.43
2016-05-17T12:03:06.448Z,1008.46
2016-05-17T12:06:18.066Z,1008.43
2016-05-17T12:09:34.014Z,1008.34
2016-05-17T12:12:37.115Z,1008.48
2016-05-17T12:15:49.045Z,1008.34
2016-05-17T12:19:00.975Z,1008.38
2016-05-17T12:22:13.233Z,1008.24
2016-05-17T12:25:28.991Z,1008.43
2016-05-17T12:28:32.187Z,1008.2
2016-05-17T12:31:44.479Z,1008.12
2016-05-17T12:34:56.049Z,1008.2
2016-05-17T12:38:05.635Z,1008.3
2016-05-17T12:41:17.518Z,1008.18
2016-05-17T12:44:33.654Z,1008.12
2016-05-17T12:47:37.178Z,1008.1
2016-05-17T12:50:48.952Z,1008.18
2016-05-17T12:54:01.022Z,1008.16
2016-05-17T12:57:13.125Z,1008.16
2016-05-17T13:00:29.085Z,1008.1
2016-05-17T13:03:32.485Z,1008.04
2016-05-17T13:06:44.745Z,1008.04
2016-05-17T13:09:57.409Z,1008
2016-05-17T13:13:07.808Z,1008.12
2016-05-17T13:16:19.551Z,1008.08
2016-05-17T13:19:31.355Z,1008.04
2016-05-17T13:22:43.585Z,1008
2016-05-17T13:25:55.781Z,1008.2
2016-05-17T13:29:07.788Z,1008.12
2016-05-17T13:32:18.671Z,1008.2
2016-05-17T13:35:31.695Z,1008.12
2016-05-17T13:38:43.534Z,1008.18
2016-05-17T13:41:55.480Z,1008.2
2016-05-17T13:45:07.316Z,1008.28
2016-05-17T13:48:18.965Z,1008.22
2016-05-17T13:51:34.911Z,1008.3
2016-05-17T13:54:37.968Z,1008.34
2016-05-17T13:57:49.850Z,1008.28
2016-05-17T14:01:01.562Z,1008.24
2016-05-17T14:04:13.617Z,1008.26
2016-05-17T14:07:30.094Z,1008.24
2016-05-17T14:10:32.774Z,1008.14
2016-05-17T14:13:44.972Z,1008.2
2016-05-17T14:16:57.082Z,1008.28
2016-05-17T14:20:09.511Z,1008.36
2016-05-17T14:23:25.461Z,1008.28
2016-05-17T14:26:32.507Z,1008.16
2016-05-17T14:29:35.594Z,1008.22
2016-05-17T14:32:47.601Z,1008.16
2016-05-17T14:35:59.786Z,1008.26
2016-05-17T14:39:11.654Z,1008.12
2016-05-17T14:42:27.367Z,1008.2
2016-05-17T14:45:34.501Z,1008.18
2016-05-17T14:48:37.574Z,1008.28
2016-05-17T14:51:49.771Z,1008.08
2016-05-17T14:55:01.965Z,1008.2
2016-05-17T14:58:13.911Z,1008.24
2016-05-17T15:01:29.950Z,1008.2
2016-05-17T15:04:33.428Z,1008.24
2016-05-17T15:07:45.578Z,1008.22
2016-05-17T15:10:57.540Z,1008.32
2016-05-17T15:14:09.563Z,1008.38
2016-05-17T15:17:21.555Z,1008.48
2016-05-17T15:20:33.532Z,1008.44
2016-05-17T15:23:45.699Z,1008.46
2016-05-17T15:26:57.817Z,1008.52
2016-05-17T15:30:09.043Z,1008.52
2016-05-17T15:33:26.381Z,1008.44
2016-05-17T15:36:33.545Z,1008.46
2016-05-17T15:39:36.756Z,1008.46
2016-05-17T15:42:48.689Z,1008.56
2016-05-17T15:46:00.758Z,1008.46
2016-05-17T15:49:12.424Z,1008.43
2016-05-17T15:52:28.337Z,1008.34
2016-05-17T15:55:31.532Z,1008.36
2016-05-17T15:58:43.543Z,1008.3
2016-05-17T16:01:54.520Z,1008.22
2016-05-17T16:05:07.434Z,1008.3
2016-05-17T16:08:19.475Z,1008.18
2016-05-17T16:11:35.436Z,1008.12
2016-05-17T16:14:38.631Z,1008.18
2016-05-17T16:17:50.814Z,1008.08
2016-05-17T16:21:02.994Z,1008.04
2016-05-17T16:24:15.049Z,1008.08
2016-05-17T16:27:31.150Z,1008.1
2016-05-17T16:30:34.409Z,1008.06
2016-05-17T16:33:46.622Z,1008.06
2016-05-17T16:36:58.912Z,1008.02
2016-05-17T16:40:11.061Z,1008.1
2016-05-17T16:43:27.162Z,1008.02
2016-05-17T16:46:34.295Z,1008.02
2016-05-17T16:49:37.616Z,1008.1
2016-05-17T16:52:48.971Z,1008.02
2016-05-17T16:56:00.932Z,1008.12
2016-05-17T16:59:14.346Z,1008.14
2016-05-17T17:02:30.666Z,1008.12
2016-05-17T17:05:34.268Z,1008.12
2016-05-17T17:08:46.809Z,1008.1
2016-05-17T17:11:59.178Z,1008.08
2016-05-17T17:15:10.155Z,1008.12
2016-05-17T17:18:26.507Z,1008.18
2016-05-17T17:21:33.905Z,1008.2
2016-05-17T17:24:37.444Z,1008.24
2016-05-17T17:27:49.643Z,1008.18
2016-05-17T17:31:01.885Z,1008.22
2016-05-17T17:34:14.268Z,1008.2
2016-05-17T17:37:30.557Z,1008.22
2016-05-17T17:40:33.909Z,1008.28
2016-05-17T17:43:45.870Z,1008.24
2016-05-17T17:46:57.381Z,1008.34
2016-05-17T17:50:10.045Z,1008.28
2016-05-17T17:53:25.850Z,1008.26
2016-05-17T17:56:33.234Z,1008.22
2016-05-17T17:59:36.539Z,1008.28
2016-05-17T18:02:48.924Z,1008.32
2016-05-17T18:06:01.276Z,1008.32
2016-05-17T18:09:13.425Z,1008.26
2016-05-17T18:12:29.480Z,1008.28
2016-05-17T18:15:32.926Z,1008.32
2016-05-17T18:18:45.137Z,1008.38
2016-05-17T18:21:57.491Z,1008.44
2016-05-17T18:25:09.702Z,1008.3
2016-05-17T18:28:26.008Z,1008.34
2016-05-17T18:31:33.438Z,1008.28
2016-05-17T18:34:36.727Z,1008.32
2016-05-17T18:37:48.921Z,1008.44
2016-05-17T18:41:01.355Z,1008.44
2016-05-17T18:44:13.019Z,1008.43
2016-05-17T18:47:29.356Z,1008.44
2016-05-17T18:50:32.410Z,1008.5
2016-05-17T18:53:44.575Z,1008.38
2016-05-17T18:56:56.679Z,1008.46
2016-05-17T19:00:09.125Z,1008.44
2016-05-17T19:03:21.304Z,1008.52
2016-05-17T19:06:33.609Z,1008.62
2016-05-17T19:09:45.837Z,1008.6
2016-05-17T19:12:58.065Z,1008.66
2016-05-17T19:16:10.199Z,1008.5
2016-05-17T19:19:26.284Z,1008.58
2016-05-17T19:22:33.683Z,1008.58
2016-05-17T19:25:37.083Z,1008.56
2016-05-17T19:28:49.263Z,1008.54
2016-05-17T19:32:01.195Z,1008.66
2016-05-17T19:35:13.484Z,1008.66
2016-05-17T19:38:27.321Z,1008.78
2016-05-17T19:41:34.579Z,1008.56
2016-05-17T19:44:37.884Z,1008.74
2016-05-17T19:47:49.532Z,1008.62
2016-05-17T19:51:01.996Z,1008.66
2016-05-17T19:54:14.270Z,1008.68
2016-05-17T19:57:27.528Z,1008.62
2016-05-17T20:00:34.833Z,1008.6
2016-05-17T20:03:38.232Z,1008.62
2016-05-17T20:06:53.836Z,1008.74
2016-05-17T20:10:02.251Z,1008.68
2016-05-17T20:13:13.134Z,1008.58
2016-05-17T20:16:30.297Z,1008.6
2016-05-17T20:19:33.868Z,1008.6
2016-05-17T20:22:46.189Z,1008.6
2016-05-17T20:25:58.122Z,1008.54
2016-05-17T20:29:10.427Z,1008.56
2016-05-17T20:32:26.919Z,1008.6
2016-05-17T20:35:34.427Z,1008.62
2016-05-17T20:38:37.747Z,1008.62
2016-05-17T20:41:55.243Z,1008.66
2016-05-17T20:45:01.954Z,1008.7
2016-05-17T20:48:14.165Z,1008.68
2016-05-17T20:51:30.501Z,1008.72
2016-05-17T20:54:33.729Z,1008.76
2016-05-17T20:57:45.533Z,1008.72
2016-05-17T21:00:57.841Z,1008.76
2016-05-17T21:04:10.052Z,1008.72
2016-05-17T21:07:18.779Z,1008.7
2016-05-17T21:10:34.366Z,1008.72
2016-05-17T21:13:37.671Z,1008.72
2016-05-17T21:16:55.054Z,1008.7
2016-05-17T21:20:01.876Z,1008.72
2016-05-17T21:23:13.993Z,1008.64
2016-05-17T21:26:29.845Z,1008.72
2016-05-17T21:29:33.088Z,1008.78
2016-05-17T21:32:45.315Z,1008.6
2016-05-17T21:35:57.357Z,1008.66
2016-05-17T21:39:09.240Z,1008.7
2016-05-17T21:42:19.138Z,1008.64
2016-05-17T21:45:35.006Z,1008.64
2016-05-17T21:48:38.717Z,1008.58
2016-05-17T21:51:53.694Z,1008.54
2016-05-17T21:55:01.736Z,1008.58
2016-05-17T21:58:10.698Z,1008.7
2016-05-17T22:01:22.956Z,1008.62
2016-05-17T22:04:35.072Z,1008.52
2016-05-17T22:07:47.034Z,1008.68
2016-05-17T22:10:59.122Z,1008.62
2016-05-17T22:14:10.177Z,1008.58
2016-05-17T22:17:22.217Z,1008.62
2016-05-17T22:20:38.318Z,1008.58
2016-05-17T22:23:41.467Z,1008.52
2016-05-17T22:26:53.960Z,1008.58
2016-05-17T22:30:05.143Z,1008.58
2016-05-17T22:33:17.167Z,1008.6
2016-05-17T22:36:33.206Z,1008.58
2016-05-17T22:39:36.448Z,1008.5
2016-05-17T22:42:48.721Z,1008.38
2016-05-17T22:46:00.854Z,1008.48
2016-05-17T22:49:13.006Z,1008.54
2016-05-17T22:52:24.718Z,1008.48
2016-05-17T22:55:36.835Z,1008.54
2016-05-17T22:58:49.030Z,1008.6
2016-05-17T23:02:00.850Z,1008.52
2016-05-17T23:05:12.939Z,1008.58
2016-05-17T23:08:25.026Z,1008.56
2016-05-17T23:11:36.941Z,1008.52
2016-05-17T23:14:49.198Z,1008.44
2016-05-17T23:17:59.800Z,1008.5
2016-05-17T23:21:08.952Z,1008.58
2016-05-17T23:24:20.890Z,1008.48
2016-05-17T23:27:36.768Z,1008.5
2016-05-17T23:30:40.057Z,1008.48
2016-05-17T23:33:52.279Z,1008.46
2016-05-17T23:37:04.263Z,1008.52
2016-05-17T23:40:16.231Z,1008.52
2016-05-17T23:43:27.336Z,1008.46
2016-05-17T23:46:39.301Z,1008.36
2016-05-17T23:49:51.387Z,1008.44
2016-05-17T23:53:03.241Z,1008.5
2016-05-17T23:56:15.233Z,1008.44
2016-05-17T23:59:24.085Z,1008.56
